This is the latest recevied weather packets stored in our database for station/object IW2LSY-11. If no packets are shown the sender has not sent any weather packets the latest 1 day(s).
| Time | Temp. | Humidity | Pressure | Rain* | Wind** | Luminosity | Snow |
|---|---|---|---|---|---|---|---|
| 1778094014 | 11.11° C | 94% | 1013.2 hPa | - | - | 263 W/m² | - |
| 1778092815 | 11.11° C | 92% | 1012.9 hPa | - | - | 265 W/m² | - |
| 1778090406 | 10° C | 10% | - | - | - | 269 W/m² | - |
| 1778089807 | 11.11° C | 93% | 1012.8 hPa | - | - | 270 W/m² | - |
| 1778088608 | 11.67° C | 93% | 1012.9 hPa | - | - | 271 W/m² | - |
| 1778083812 | 12.78° C | 90% | 1011 hPa | - | - | 273 W/m² | - |
| 1778083212 | 13.33° C | 80% | 1010.8 hPa | - | - | 273 W/m² | - |
| 1778082613 | 13.33° C | 81% | 1010.5 hPa | - | - | 273 W/m² | - |
| 1778081414 | 15° C | 77% | 1010.1 hPa | - | - | 275 W/m² | - |
| 1778080815 | 15.56° C | 75% | 1010 hPa | - | - | 275 W/m² | - |
| 1778077208 | 15.56° C | 60% | 1009.9 hPa | - | - | 276 W/m² | - |
| 1778071812 | 16.11° C | 55% | 1010 hPa | - | - | 279 W/m² | - |
| 1778068213 | 14.44° C | 75% | 1010 hPa | - | - | 287 W/m² | - |
| 1778067614 | 15° C | 78% | 1010.3 hPa | - | - | 288 W/m² | - |
| 1778059210 | 14.44° C | 76% | 1009.5 hPa | - | - | 298 W/m² | - |
| 1778055613 | 14.44° C | 87% | 1009.7 hPa | - | - | 300 W/m² | - |
| 1778055014 | 13.89° C | 88% | 1009.9 hPa | - | - | 301 W/m² | - |
| 1778052605 | 13.89° C | 90% | 1010.6 hPa | - | - | 303 W/m² | - |
| 1778052005 | 13.33° C | 93% | 1010.6 hPa | - | - | 303 W/m² | - |
| 1778049608 | 13.33° C | 91% | 1010.6 hPa | - | - | 305 W/m² | - |
| 1778049008 | 13.33° C | 97% | 1010.9 hPa | - | - | 305 W/m² | - |
| 1778048408 | 12.78° C | 97% | 1010.9 hPa | - | - | 305 W/m² | - |
| 1778047808 | 13.33° C | 96% | 1011 hPa | - | - | 305 W/m² | - |
| 1778046609 | 12.78° C | 94% | 1010.8 hPa | - | - | 306 W/m² | - |
| 1778046009 | 12.78° C | 95% | 1010.7 hPa | - | - | 306 W/m² | - |
* Rain since midnight (hover to see other rain measurements)
** Current wind speed in m/s (hover to see current wind gust speed)